Time;durP1;ratioP1;P1;durP2;ratioP2;P2;SDS_P1;SDS_P2;PMS_P1;PMS_P2;Temp;Humidity;BMP_temperature;BMP_pressure;BME280_temperature;BME280_humidity;BME280_pressure;Samples;Min_cycle;Max_cycle;Signal;HPM_P1;HPM_P2
2022/09/19 00:01:55;;;;;;;2.67;0.75;;;20.80;80.50;;;;;;5070648;28;20017;-82
2022/09/19 00:04:33;;;;;;;2.22;0.30;;;20.90;82.80;;;;;;5068332;28;20035;-81
2022/09/19 00:07:01;;;;;;;2.95;0.63;;;21.10;81.50;;;;;;5060883;28;20384;-79
2022/09/19 00:09:31;;;;;;;1.38;0.45;;;21.40;79.60;;;;;;5057997;28;20029;-75
2022/09/19 00:11:59;;;;;;;0.93;0.28;;;21.40;77.60;;;;;;5069346;28;20063;-81
2022/09/19 00:14:32;;;;;;;0.70;0.20;;;21.60;79.50;;;;;;5055282;28;20048;-77
2022/09/19 00:17:04;;;;;;;1.98;0.40;;;22.10;78.00;;;;;;5067156;28;20032;-79
2022/09/19 00:19:32;;;;;;;4.40;0.73;;;23.10;78.00;;;;;;5055097;28;20483;-78
2022/09/19 00:22:01;;;;;;;1.60;0.55;;;24.00;75.60;;;;;;5062324;28;20106;-78
2022/09/19 00:24:49;;;;;;;1.42;0.50;;;24.30;74.70;;;;;;5058772;28;20075;-80
2022/09/19 00:27:22;;;;;;;0.55;0.20;;;25.10;72.80;;;;;;5058962;28;20028;-79
2022/09/19 00:29:51;;;;;;;0.82;0.40;;;25.60;71.20;;;;;;5063309;28;20465;-81
2022/09/19 00:32:20;;;;;;;1.25;0.40;;;25.30;73.50;;;;;;5055476;28;20045;-79
2022/09/19 00:34:50;;;;;;;3.03;0.40;;;24.90;70.00;;;;;;5072610;28;20032;-83
2022/09/19 00:37:19;;;;;;;2.88;0.30;;;24.80;72.50;;;;;;5073664;28;20059;-82
2022/09/19 00:39:47;;;;;;;2.38;0.75;;;25.20;73.90;;;;;;5059610;28;20379;-79
2022/09/19 00:42:20;;;;;;;1.98;0.40;;;25.80;72.90;;;;;;5059218;28;20032;-80
2022/09/19 00:44:57;;;;;;;2.78;0.73;;;26.20;72.80;;;;;;5067566;28;20024;-79
2022/09/19 00:47:33;;;;;;;1.38;0.40;;;25.70;71.40;;;;;;5067237;28;20400;-79
2022/09/19 00:50:03;;;;;;;1.77;0.70;;;25.40;71.00;;;;;;5072538;28;20037;-79
2022/09/19 00:52:58;;;;;;;1.02;0.22;;;25.40;73.30;;;;;;5064986;28;20438;-80
2022/09/19 00:55:26;;;;;;;2.50;0.70;;;25.70;72.90;;;;;;5052979;28;20021;-78
2022/09/19 00:58:05;;;;;;;1.52;0.20;;;26.20;73.10;;;;;;5058399;28;20032;-81
2022/09/19 01:00:34;;;;;;;1.40;0.20;;;26.60;73.50;;;;;;5058474;28;20028;-78
2022/09/19 01:03:06;;;;;;;1.67;0.40;;;27.30;70.60;;;;;;5061213;28;20103;-81
2022/09/19 01:05:58;;;;;;;1.02;0.30;;;27.30;67.00;;;;;;5061524;28;20356;-83
2022/09/19 01:08:49;;;;;;;3.63;0.52;;;26.40;67.80;;;;;;5062058;28;20429;-78
2022/09/19 01:11:47;;;;;;;1.10;0.47;;;25.90;67.40;;;;;;5058991;28;20025;-81
2022/09/19 01:14:26;;;;;;;2.63;0.30;;;25.60;70.30;;;;;;5060294;28;20077;-79
2022/09/19 01:17:12;;;;;;;2.85;0.45;;;26.00;69.70;;;;;;5058397;28;20039;-79
2022/09/19 01:19:45;;;;;;;1.55;0.40;;;25.90;69.80;;;;;;5059707;28;20032;-80
2022/09/19 01:22:41;;;;;;;3.25;0.60;;;26.00;68.90;;;;;;5061504;28;20021;-82
2022/09/19 01:25:31;;;;;;;3.33;0.50;;;26.10;72.10;;;;;;5067027;28;20103;-81
2022/09/19 01:28:37;;;;;;;4.07;0.47;;;26.20;72.80;;;;;;5074030;28;20044;-85
2022/09/19 01:31:28;;;;;;;1.80;0.43;;;26.40;69.10;;;;;;5056494;28;20035;-85
2022/09/19 01:34:06;;;;;;;2.70;0.40;;;26.30;69.10;;;;;;5059595;28;20068;-80
2022/09/19 01:37:12;;;;;;;1.65;0.45;;;26.10;68.60;;;;;;5065885;28;20033;-83
2022/09/19 01:39:43;;;;;;;3.55;0.52;;;26.30;70.00;;;;;;5062917;28;20032;-81
2022/09/19 01:42:14;;;;;;;6.40;0.40;;;26.10;68.80;;;;;;5062891;28;20465;-82
2022/09/19 01:44:41;;;;;;;2.65;0.77;;;26.20;69.40;;;;;;5072108;28;20028;-81
2022/09/19 01:47:46;;;;;;;1.25;0.50;;;26.40;72.10;;;;;;5081780;28;20069;-82
2022/09/19 01:50:19;;;;;;;0.93;0.20;;;27.10;73.10;;;;;;5063610;28;20041;-84
2022/09/19 01:53:13;;;;;;;1.17;0.50;;;27.40;70.70;;;;;;5071482;28;20021;-81
2022/09/19 01:55:50;;;;;;;0.85;0.20;;;27.70;67.30;;;;;;5062552;28;20530;-81
2022/09/19 01:58:49;;;;;;;2.97;0.63;;;27.60;70.40;;;;;;5053437;28;20060;-81
2022/09/19 02:01:28;;;;;;;0.90;0.30;;;27.50;67.50;;;;;;5069276;28;20527;-80
2022/09/19 02:04:13;;;;;;;1.23;0.43;;;27.20;70.50;;;;;;5070531;28;20032;-81
2022/09/19 02:07:12;;;;;;;0.82;0.40;;;27.30;70.40;;;;;;5070499;28;20447;-82
2022/09/19 02:10:01;;;;;;;2.25;0.50;;;27.50;67.40;;;;;;5062697;28;20052;-81
2022/09/19 02:12:32;;;;;;;4.50;0.43;;;27.50;68.90;;;;;;5056995;28;20510;-79
2022/09/19 02:15:03;;;;;;;2.75;0.47;;;27.40;69.70;;;;;;5063997;28;20052;-82
2022/09/19 02:17:51;;;;;;;0.88;0.30;;;27.50;68.60;;;;;;5069775;28;20826;-76
2022/09/19 02:20:25;;;;;;;1.40;0.55;;;27.90;69.90;;;;;;5067917;28;20024;-79
2022/09/19 02:23:20;;;;;;;1.30;0.50;;;28.10;67.70;;;;;;5059107;28;20093;-76
2022/09/19 02:25:50;;;;;;;0.98;0.30;;;28.00;69.60;;;;;;5052709;28;20680;-78
2022/09/19 02:28:23;;;;;;;1.08;0.68;;;28.20;70.80;;;;;;5064895;28;20032;-82
2022/09/19 02:30:50;;;;;;;1.10;0.38;;;28.40;69.50;;;;;;5052963;28;20086;-85
2022/09/19 02:33:19;;;;;;;1.88;0.75;;;28.30;66.90;;;;;;5057051;28;20074;-81
2022/09/19 02:35:59;;;;;;;2.33;0.15;;;28.40;70.00;;;;;;5059584;28;20070;-80
2022/09/19 02:38:34;;;;;;;0.98;0.43;;;28.70;67.70;;;;;;5059572;28;20387;-81
2022/09/19 02:41:26;;;;;;;2.17;0.30;;;28.80;69.00;;;;;;5054427;28;20487;-80
2022/09/19 02:44:14;;;;;;;2.10;0.38;;;29.00;64.80;;;;;;5049456;28;20273;-79
2022/09/19 02:47:04;;;;;;;2.60;0.30;;;28.60;66.00;;;;;;5053552;28;20025;-82
2022/09/19 02:50:16;;;;;;;2.70;0.52;;;28.10;67.20;;;;;;5054767;28;20037;-79
2022/09/19 02:52:46;;;;;;;2.25;0.65;;;27.80;69.10;;;;;;5034876;28;20037;-81
2022/09/19 02:55:26;;;;;;;0.63;0.30;;;27.80;70.30;;;;;;5055527;28;20024;-82
2022/09/19 02:57:58;;;;;;;1.55;0.32;;;28.30;70.50;;;;;;5058010;28;20036;-79
2022/09/19 03:00:26;;;;;;;0.98;0.30;;;28.40;65.00;;;;;;5055960;28;20405;-79
2022/09/19 03:06:09;;;;;;;4.60;0.80;;;28.10;65.60;;;;;;5060961;28;20391;-78
2022/09/19 03:08:38;;;;;;;0.70;0.20;;;27.90;66.50;;;;;;5059478;28;20041;-81
2022/09/19 03:11:13;;;;;;;1.50;0.30;;;28.10;68.10;;;;;;5054966;28;20024;-79
2022/09/19 03:13:41;;;;;;;0.28;0.10;;;28.40;67.30;;;;;;5060385;28;20028;-79
2022/09/19 03:16:14;;;;;;;0.50;0.20;;;28.80;67.70;;;;;;5056988;28;20116;-78
2022/09/19 03:18:49;;;;;;;0.98;0.20;;;29.10;67.00;;;;;;5056302;28;20035;-80
2022/09/19 03:21:24;;;;;;;0.82;0.10;;;29.30;65.90;;;;;;5055627;28;20040;-77
2022/09/19 03:23:58;;;;;;;0.90;0.10;;;28.70;65.90;;;;;;5060031;28;20036;-82
2022/09/19 03:26:30;;;;;;;2.35;0.20;;;27.60;65.70;;;;;;5058734;28;20031;-81
2022/09/19 03:28:59;;;;;;;1.67;0.28;;;26.70;66.40;;;;;;5064962;28;20395;-78
2022/09/19 03:31:27;;;;;;;2.50;0.40;;;26.10;66.50;;;;;;5066384;28;20041;-81
2022/09/19 03:33:56;;;;;;;0.40;0.20;;;26.40;68.40;;;;;;5054565;28;20032;-82
2022/09/19 03:36:29;;;;;;;1.40;0.20;;;26.40;65.10;;;;;;5054567;28;20686;-78
2022/09/19 03:39:00;;;;;;;0.73;0.20;;;26.60;64.80;;;;;;5054204;28;20025;-76
2022/09/19 03:41:30;;;;;;;0.93;0.40;;;26.10;64.10;;;;;;5058921;28;20535;-80
2022/09/19 03:44:01;;;;;;;0.73;0.40;;;26.00;66.90;;;;;;5067998;28;20081;-77
2022/09/19 03:46:33;;;;;;;2.47;0.20;;;26.20;67.40;;;;;;5052189;28;20033;-80
2022/09/19 03:49:02;;;;;;;0.77;0.20;;;26.70;67.00;;;;;;5054789;28;21172;-81
2022/09/19 03:51:30;;;;;;;1.30;0.40;;;27.20;67.90;;;;;;5056873;28;20028;-80
2022/09/19 03:53:58;;;;;;;0.47;0.30;;;27.80;68.50;;;;;;5053488;28;20057;-81
2022/09/19 03:56:26;;;;;;;0.85;0.50;;;28.30;67.70;;;;;;5055095;28;20052;-79
2022/09/19 03:58:53;;;;;;;1.20;0.20;;;28.40;66.10;;;;;;5054409;28;20128;-81
2022/09/19 04:01:21;;;;;;;0.10;0.10;;;28.40;66.10;;;;;;5056884;28;20044;-80
2022/09/19 04:03:49;;;;;;;0.60;0.20;;;28.40;65.80;;;;;;5057980;28;20120;-79
2022/09/19 04:06:17;;;;;;;1.95;0.15;;;28.20;65.10;;;;;;5068966;28;20029;-80
2022/09/19 04:08:45;;;;;;;0.77;0.20;;;28.40;65.80;;;;;;5058385;28;20070;-83
2022/09/19 04:11:12;;;;;;;0.80;0.10;;;28.40;66.70;;;;;;5057326;28;20033;-81
2022/09/19 04:13:39;;;;;;;0.15;0.00;;;28.40;64.90;;;;;;5048803;28;20554;-82
2022/09/19 04:16:08;;;;;;;1.20;0.20;;;28.50;65.40;;;;;;5056537;28;20528;-84
2022/09/19 04:18:35;;;;;;;0.35;0.20;;;28.60;63.70;;;;;;5051661;28;20028;-83
2022/09/19 04:21:04;;;;;;;0.93;0.10;;;28.50;63.30;;;;;;5052907;28;20025;-82
2022/09/19 04:23:32;;;;;;;2.92;0.20;;;28.40;61.40;;;;;;5053702;28;20457;-82
2022/09/19 04:26:03;;;;;;;0.82;0.20;;;28.20;62.60;;;;;;5056922;28;20033;-84
2022/09/19 04:28:31;;;;;;;2.05;0.00;;;27.90;62.00;;;;;;5057841;28;20446;-84
2022/09/19 04:30:58;;;;;;;1.48;0.40;;;27.80;60.80;;;;;;5053380;28;20046;-78
2022/09/19 04:33:26;;;;;;;0.35;0.15;;;27.50;65.70;;;;;;5066069;28;20029;-81
2022/09/19 04:36:00;;;;;;;1.25;0.35;;;27.60;65.80;;;;;;5056156;28;20019;-78
2022/09/19 04:38:29;;;;;;;1.60;0.10;;;27.50;64.70;;;;;;5056237;28;20487;-81
2022/09/19 04:40:57;;;;;;;0.30;0.10;;;27.50;61.50;;;;;;5052695;28;20055;-81
2022/09/19 04:43:26;;;;;;;0.47;0.30;;;27.70;62.80;;;;;;5054902;28;20033;-75
2022/09/19 04:45:58;;;;;;;1.23;0.00;;;27.80;60.10;;;;;;5052683;28;20031;-78
2022/09/19 04:48:25;;;;;;;0.50;0.10;;;27.30;58.40;;;;;;5054086;28;20086;-80
2022/09/19 04:50:53;;;;;;;3.92;0.20;;;27.10;59.60;;;;;;5053205;28;20039;-79
2022/09/19 04:53:27;;;;;;;0.10;0.10;;;27.00;60.50;;;;;;5058781;28;20082;-80
2022/09/19 04:55:55;;;;;;;0.22;0.08;;;26.90;60.80;;;;;;5055170;28;20172;-83
2022/09/19 04:58:23;;;;;;;0.03;0.00;;;26.70;60.00;;;;;;5054755;28;20778;-80
2022/09/19 05:00:55;;;;;;;1.38;0.10;;;26.60;59.70;;;;;;5057510;28;20111;-83
2022/09/19 05:03:27;;;;;;;0.05;0.00;;;26.60;62.00;;;;;;5057219;28;20201;-81
2022/09/19 05:05:55;;;;;;;0.47;0.10;;;26.70;60.20;;;;;;5055564;28;20028;-79
2022/09/19 05:08:28;;;;;;;0.98;0.20;;;26.80;62.20;;;;;;5059678;28;20037;-87
2022/09/19 05:10:57;;;;;;;0.90;0.20;;;26.90;60.90;;;;;;5060201;28;20029;-79
2022/09/19 05:13:29;;;;;;;1.27;0.10;;;26.90;60.20;;;;;;5060403;28;20056;-85
2022/09/19 05:15:57;;;;;;;0.20;0.10;;;26.70;59.00;;;;;;5056576;28;20081;-84
2022/09/19 05:18:25;;;;;;;2.20;0.20;;;26.60;58.80;;;;;;5058480;28;20093;-82
2022/09/19 05:20:54;;;;;;;0.40;0.17;;;26.50;57.90;;;;;;5053951;28;20036;-82
2022/09/19 05:23:25;;;;;;;0.20;0.10;;;26.40;59.00;;;;;;5053731;28;20083;-80
2022/09/19 05:25:53;;;;;;;0.77;0.10;;;26.30;60.50;;;;;;5055982;28;20028;-83
2022/09/19 05:28:26;;;;;;;0.32;0.10;;;26.20;59.50;;;;;;5058975;28;20029;-80
2022/09/19 05:30:55;;;;;;;0.10;0.00;;;26.30;59.90;;;;;;5054276;28;20055;-80
2022/09/19 05:33:26;;;;;;;1.77;0.10;;;26.20;58.20;;;;;;5055941;28;20751;-79
2022/09/19 05:35:59;;;;;;;0.20;0.20;;;26.10;58.00;;;;;;5049945;28;20084;-81
2022/09/19 05:38:31;;;;;;;0.30;0.20;;;25.90;58.20;;;;;;5053073;28;20476;-81
2022/09/19 05:41:01;;;;;;;0.20;0.05;;;25.80;58.70;;;;;;5054291;28;20029;-82
2022/09/19 05:43:29;;;;;;;5.38;0.10;;;25.70;58.30;;;;;;5054380;28;20081;-79
2022/09/19 05:45:57;;;;;;;1.75;0.20;;;25.60;58.40;;;;;;5053325;28;20028;-82
2022/09/19 05:48:25;;;;;;;0.82;0.10;;;25.50;57.90;;;;;;5053277;28;20056;-80
2022/09/19 05:50:54;;;;;;;0.65;0.10;;;25.40;58.10;;;;;;5055398;28;20110;-77
2022/09/19 05:56:08;;;;;;;1.30;0.10;;;25.40;58.20;;;;;;5053705;28;20051;-80
2022/09/19 05:58:36;;;;;;;0.63;0.10;;;25.30;57.80;;;;;;5056654;28;20170;-77
2022/09/19 06:01:08;;;;;;;0.98;0.20;;;25.30;57.50;;;;;;5051924;28;20090;-79
2022/09/19 06:03:36;;;;;;;0.30;0.10;;;25.00;57.20;;;;;;5056799;28;20032;-79
2022/09/19 06:06:13;;;;;;;0.47;0.10;;;24.90;58.80;;;;;;5056172;28;20063;-79
2022/09/19 06:08:45;;;;;;;0.17;0.10;;;24.90;58.30;;;;;;5054279;28;20047;-79
2022/09/19 06:11:13;;;;;;;0.30;0.10;;;24.80;58.00;;;;;;5056430;28;20028;-80
2022/09/19 06:16:25;;;;;;;0.03;0.03;;;24.60;57.20;;;;;;5060120;28;20762;-87
2022/09/19 06:18:53;;;;;;;0.40;0.13;;;24.60;57.50;;;;;;5057939;28;20089;-79
2022/09/19 06:21:20;;;;;;;0.32;0.15;;;24.60;58.00;;;;;;5055877;28;20440;-81
2022/09/19 06:23:48;;;;;;;0.63;0.20;;;24.40;57.10;;;;;;5051827;28;20033;-82
2022/09/19 06:26:17;;;;;;;1.00;0.20;;;24.40;58.80;;;;;;5053518;28;20047;-79
2022/09/19 06:28:46;;;;;;;2.53;0.57;;;24.40;58.00;;;;;;5054300;28;20449;-78
2022/09/19 06:31:13;;;;;;;1.65;0.40;;;24.20;58.60;;;;;;5053240;28;20175;-78
2022/09/19 06:33:42;;;;;;;0.40;0.10;;;24.10;58.10;;;;;;5052649;28;20395;-78
2022/09/19 06:36:10;;;;;;;0.17;0.00;;;24.00;57.20;;;;;;5056911;28;20113;-78
2022/09/19 06:38:41;;;;;;;0.90;0.20;;;23.90;58.20;;;;;;5055515;28;20028;-78
2022/09/19 06:41:09;;;;;;;0.63;0.35;;;23.80;57.60;;;;;;5060195;28;20033;-77
2022/09/19 06:43:36;;;;;;;0.68;0.13;;;23.70;57.90;;;;;;5056898;28;20054;-77
2022/09/19 06:46:04;;;;;;;1.10;0.10;;;23.60;58.80;;;;;;5057244;28;20031;-77
2022/09/19 06:48:33;;;;;;;0.57;0.47;;;23.50;58.20;;;;;;5056077;28;20044;-77
2022/09/19 06:51:00;;;;;;;1.52;0.20;;;23.40;57.70;;;;;;5055015;28;20487;-75
2022/09/19 06:53:27;;;;;;;2.47;0.10;;;23.20;57.60;;;;;;5057134;28;20041;-78
2022/09/19 06:55:56;;;;;;;0.30;0.10;;;23.10;58.80;;;;;;5056544;28;20041;-77
2022/09/19 06:58:25;;;;;;;1.50;0.20;;;23.00;59.10;;;;;;5058321;28;20083;-78
2022/09/19 07:00:53;;;;;;;0.90;0.30;;;23.00;59.80;;;;;;5041266;28;20025;-77
2022/09/19 07:03:20;;;;;;;3.00;0.10;;;22.80;59.40;;;;;;5055337;28;20033;-72
2022/09/19 07:05:51;;;;;;;1.00;0.20;;;22.70;61.90;;;;;;5054688;28;20025;-76
2022/09/19 07:08:19;;;;;;;1.42;0.20;;;22.50;60.70;;;;;;5054172;28;20035;-76
2022/09/19 07:10:46;;;;;;;0.52;0.10;;;22.30;60.60;;;;;;5078860;28;20036;-79
2022/09/19 07:13:16;;;;;;;2.67;0.20;;;22.10;60.90;;;;;;5059761;28;20032;-77
2022/09/19 07:15:44;;;;;;;0.30;0.13;;;22.00;60.40;;;;;;5054959;28;20032;-79
2022/09/19 07:18:13;;;;;;;2.55;0.25;;;21.80;61.30;;;;;;5055052;28;20454;-79
2022/09/19 07:20:41;;;;;;;1.98;0.13;;;21.60;61.90;;;;;;5057776;28;20402;-80
2022/09/19 07:23:18;;;;;;;0.55;0.15;;;21.50;62.30;;;;;;5058419;28;20082;-76
2022/09/19 07:25:48;;;;;;;1.58;0.20;;;21.40;62.70;;;;;;5056338;28;20107;-77
2022/09/19 07:28:18;;;;;;;1.02;0.57;;;21.20;63.90;;;;;;5062762;28;20085;-77
2022/09/19 07:30:47;;;;;;;1.88;0.20;;;21.00;64.30;;;;;;5056800;28;20026;-81
2022/09/19 07:33:17;;;;;;;1.20;0.32;;;20.80;64.70;;;;;;5047938;28;20029;-78
2022/09/19 07:35:44;;;;;;;3.42;0.20;;;20.60;65.60;;;;;;5064101;28;20060;-79
2022/09/19 07:38:15;;;;;;;2.95;0.40;;;20.50;65.80;;;;;;5060229;28;20023;-77
2022/09/19 07:40:43;;;;;;;1.23;0.25;;;20.30;66.30;;;;;;5056760;28;20043;-78
2022/09/19 07:43:14;;;;;;;0.47;0.20;;;20.20;66.40;;;;;;5055517;28;20424;-78
2022/09/19 07:45:47;;;;;;;1.70;0.50;;;20.10;67.50;;;;;;5061004;28;20116;-75
2022/09/19 07:48:15;;;;;;;0.40;0.20;;;19.90;68.00;;;;;;5061007;28;20120;-80
2022/09/19 07:50:44;;;;;;;1.67;0.50;;;19.80;67.90;;;;;;5061984;28;20086;-76
2022/09/19 07:53:13;;;;;;;1.20;0.40;;;19.70;68.50;;;;;;5058095;28;20032;-75
2022/09/19 07:55:41;;;;;;;1.02;0.50;;;19.60;68.40;;;;;;5059903;28;20036;-78
2022/09/19 07:58:11;;;;;;;2.15;0.50;;;19.50;69.60;;;;;;5060177;28;20038;-78
2022/09/19 08:00:39;;;;;;;2.17;0.60;;;19.30;69.70;;;;;;5064448;28;20028;-76
2022/09/19 08:03:15;;;;;;;2.05;0.75;;;19.20;69.80;;;;;;5064524;28;20482;-78
2022/09/19 08:05:43;;;;;;;;;;;19.10;69.50;;;;;;5066045;28;20040;-76
2022/09/19 08:08:12;;;;;;;1.90;0.60;;;19.00;69.70;;;;;;5066891;28;20271;-79
2022/09/19 08:10:40;;;;;;;2.17;0.40;;;19.00;70.40;;;;;;5049135;28;20441;-79
2022/09/19 08:13:09;;;;;;;2.25;0.45;;;18.90;72.80;;;;;;5050555;28;21729;-76
2022/09/19 08:15:38;;;;;;;1.10;0.35;;;18.80;73.90;;;;;;5058829;28;20108;-77
2022/09/19 08:18:10;;;;;;;0.73;0.40;;;18.70;75.60;;;;;;5064107;28;20061;-79
2022/09/19 08:20:37;;;;;;;1.25;0.30;;;18.50;76.10;;;;;;5061661;28;20035;-78
2022/09/19 08:23:08;;;;;;;1.85;0.60;;;18.30;76.80;;;;;;5061355;28;20565;-78
2022/09/19 08:25:42;;;;;;;1.52;0.30;;;18.20;78.40;;;;;;5063628;28;20024;-79
2022/09/19 08:28:11;;;;;;;0.80;0.55;;;18.00;78.60;;;;;;5064494;28;20079;-76
2022/09/19 08:30:38;;;;;;;0.93;0.47;;;17.90;78.70;;;;;;5060319;28;20072;-77
2022/09/19 08:33:07;;;;;;;0.50;0.20;;;17.80;78.70;;;;;;5062479;28;20514;-76
2022/09/19 08:35:39;;;;;;;1.48;0.85;;;17.70;78.60;;;;;;5059086;28;20040;-77
2022/09/19 08:38:08;;;;;;;1.02;0.30;;;17.70;79.00;;;;;;5066081;28;20487;-76
2022/09/19 08:40:53;;;;;;;1.48;0.40;;;17.60;80.30;;;;;;5063768;28;20115;-78
2022/09/19 08:43:50;;;;;;;0.50;0.40;;;17.50;80.90;;;;;;5058900;28;20045;-79
2022/09/19 08:46:45;;;;;;;1.90;0.55;;;17.40;81.20;;;;;;5060641;28;20043;-77
2022/09/19 08:49:22;;;;;;;3.25;0.70;;;17.30;82.00;;;;;;5064964;28;20086;-78
2022/09/19 08:52:01;;;;;;;0.63;0.30;;;17.20;82.00;;;;;;5063094;28;20032;-77
2022/09/19 08:54:29;;;;;;;1.73;0.30;;;17.20;81.90;;;;;;5057994;28;20028;-76
2022/09/19 08:56:57;;;;;;;8.45;0.40;;;17.20;82.00;;;;;;5054128;28;20052;-76
2022/09/19 08:59:29;;;;;;;1.25;0.20;;;17.20;82.70;;;;;;5057320;28;20381;-77
2022/09/19 09:02:05;;;;;;;1.70;0.50;;;17.20;82.50;;;;;;5061056;28;20420;-76
2022/09/19 09:04:32;;;;;;;3.63;0.32;;;17.20;82.70;;;;;;5050835;28;20028;-77
2022/09/19 09:07:11;;;;;;;1.02;0.40;;;17.10;83.10;;;;;;5069494;28;20387;-76
2022/09/19 09:09:53;;;;;;;1.20;0.30;;;17.10;84.00;;;;;;5064278;28;20044;-75
2022/09/19 09:12:26;;;;;;;4.20;0.50;;;16.90;84.40;;;;;;5038590;28;20029;-78
2022/09/19 09:15:13;;;;;;;0.65;0.30;;;16.80;85.30;;;;;;5059097;28;20518;-77
2022/09/19 09:18:01;;;;;;;1.27;0.50;;;16.70;86.30;;;;;;5059293;28;20111;-78
2022/09/19 09:20:45;;;;;;;0.77;0.68;;;16.60;86.80;;;;;;5062524;28;20090;-79
2022/09/19 09:23:17;;;;;;;2.90;0.98;;;16.50;86.10;;;;;;5058211;28;20028;-77
2022/09/19 09:25:48;;;;;;;1.67;1.05;;;16.30;86.90;;;;;;5061116;28;20044;-77
2022/09/19 09:28:39;;;;;;;1.70;0.60;;;16.30;87.90;;;;;;5062427;28;20041;-78
2022/09/19 09:31:32;;;;;;;2.08;0.70;;;16.20;88.40;;;;;;5061904;28;20044;-78
2022/09/19 09:34:07;;;;;;;1.90;0.60;;;16.10;88.00;;;;;;5060949;28;20371;-78
2022/09/19 09:36:56;;;;;;;1.50;0.52;;;16.00;88.70;;;;;;5067180;28;20543;-78
2022/09/19 09:39:32;;;;;;;1.00;0.50;;;15.90;89.40;;;;;;5059705;28;20049;-79
2022/09/19 09:42:05;;;;;;;0.70;0.55;;;15.90;90.40;;;;;;5066186;28;20036;-78
2022/09/19 09:44:57;;;;;;;5.00;2.63;;;15.80;90.50;;;;;;5064497;28;20029;-78
2022/09/19 09:47:30;;;;;;;5.03;2.00;;;15.70;90.50;;;;;;5063838;28;20205;-78
2022/09/19 09:50:25;;;;;;;3.42;1.23;;;15.60;90.10;;;;;;5063879;28;20044;-80
2022/09/19 09:53:10;;;;;;;1.55;0.75;;;15.50;89.80;;;;;;5066509;28;20028;-79
2022/09/19 09:56:15;;;;;;;2.15;0.70;;;15.50;90.00;;;;;;5062501;28;20051;-77
2022/09/19 09:59:02;;;;;;;0.90;0.40;;;15.50;90.40;;;;;;5063694;28;20033;-79
2022/09/19 10:04:33;;;;;;;2.20;0.68;;;15.40;90.50;;;;;;5055635;28;20081;-78
2022/09/19 10:07:17;;;;;;;1.92;0.80;;;15.30;90.70;;;;;;5064230;28;20021;-79
2022/09/19 10:09:59;;;;;;;1.50;0.52;;;15.20;91.10;;;;;;5065171;28;20036;-79
2022/09/19 10:12:54;;;;;;;3.13;0.93;;;15.10;91.20;;;;;;5064218;28;20023;-78
2022/09/19 10:15:24;;;;;;;1.65;0.70;;;15.10;91.20;;;;;;5050745;28;20044;-75
2022/09/19 10:18:05;;;;;;;1.05;0.60;;;15.00;90.90;;;;;;5062782;28;20028;-78
2022/09/19 10:20:49;;;;;;;3.53;0.85;;;15.00;91.30;;;;;;5065978;28;20029;-77
2022/09/19 10:23:32;;;;;;;1.30;0.40;;;14.90;91.50;;;;;;5050340;28;20413;-79
2022/09/19 10:26:15;;;;;;;2.63;1.10;;;14.90;91.60;;;;;;5041989;28;20063;-78
2022/09/19 10:28:54;;;;;;;0.70;0.50;;;14.80;91.50;;;;;;5056195;28;20723;-79
2022/09/19 10:31:34;;;;;;;0.70;0.40;;;14.80;91.60;;;;;;5062634;28;20867;-79
2022/09/19 10:34:16;;;;;;;1.52;0.43;;;14.70;91.50;;;;;;5055135;28;20025;-78
2022/09/19 10:36:46;;;;;;;2.78;0.65;;;14.70;91.50;;;;;;5058232;28;20033;-78
2022/09/19 10:39:17;;;;;;;2.22;0.40;;;14.60;91.90;;;;;;5063035;28;20132;-79
2022/09/19 10:41:46;;;;;;;1.85;0.65;;;14.50;92.10;;;;;;5064066;28;20059;-79
2022/09/19 10:44:27;;;;;;;7.70;0.45;;;14.40;92.20;;;;;;5065314;28;20058;-77
2022/09/19 10:46:58;;;;;;;3.15;1.23;;;14.30;92.10;;;;;;5052512;28;20028;-77
2022/09/19 10:49:36;;;;;;;3.83;1.25;;;14.30;92.20;;;;;;5051386;28;20055;-78
2022/09/19 10:52:04;;;;;;;3.38;0.93;;;14.20;92.70;;;;;;5054717;28;20695;-78
2022/09/19 10:54:41;;;;;;;1.73;0.70;;;14.20;93.50;;;;;;5048507;28;20044;-77
2022/09/19 10:57:36;;;;;;;3.10;1.42;;;14.20;93.30;;;;;;5051883;28;20028;-77
2022/09/19 11:00:05;;;;;;;2.35;0.95;;;14.10;93.50;;;;;;5055623;28;20052;-78
2022/09/19 11:02:33;;;;;;;2.25;1.15;;;14.00;93.70;;;;;;5055555;28;20558;-79
2022/09/19 11:05:08;;;;;;;3.17;0.55;;;14.00;93.70;;;;;;5062794;28;20040;-81
2022/09/19 11:07:56;;;;;;;1.43;0.60;;;13.90;93.90;;;;;;5061510;28;20031;-78
2022/09/19 11:10:34;;;;;;;2.13;0.60;;;13.80;93.90;;;;;;5061317;28;20032;-78
2022/09/19 11:13:07;;;;;;;2.85;0.75;;;13.70;93.70;;;;;;5058568;28;20103;-79
2022/09/19 11:15:55;;;;;;;2.90;0.60;;;13.70;94.30;;;;;;5059940;28;20494;-79
2022/09/19 11:18:37;;;;;;;1.75;0.90;;;13.70;94.20;;;;;;5066438;28;20020;-78
2022/09/19 11:21:28;;;;;;;1.17;0.82;;;13.70;94.20;;;;;;5064618;28;20032;-79
2022/09/19 11:24:14;;;;;;;3.10;0.60;;;13.60;94.10;;;;;;5059154;28;20028;-77
2022/09/19 11:27:13;;;;;;;2.10;0.50;;;13.60;94.20;;;;;;5062960;28;20043;-78
2022/09/19 11:30:18;;;;;;;1.10;0.40;;;13.50;93.70;;;;;;5063957;28;20248;-78
2022/09/19 11:32:56;;;;;;;4.55;0.68;;;13.40;93.10;;;;;;5055694;28;20054;-79
2022/09/19 11:35:31;;;;;;;3.38;0.60;;;13.40;93.20;;;;;;5060571;28;20028;-78
2022/09/19 11:38:33;;;;;;;1.55;0.50;;;13.30;93.40;;;;;;5061112;28;20032;-80
2022/09/19 11:41:47;;;;;;;1.27;0.43;;;13.30;93.70;;;;;;5063427;28;20067;-78
2022/09/19 11:44:20;;;;;;;0.98;0.88;;;13.30;93.50;;;;;;4978742;28;20112;-78
2022/09/19 11:46:58;;;;;;;1.90;0.63;;;13.20;93.00;;;;;;4983894;28;20030;-78
2022/09/19 11:50:04;;;;;;;1.80;0.52;;;13.20;93.10;;;;;;5024989;28;20505;-79
2022/09/19 11:53:18;;;;;;;1.90;0.60;;;13.10;92.90;;;;;;5041838;28;20025;-79
2022/09/19 11:55:56;;;;;;;2.55;0.47;;;13.00;93.50;;;;;;5061694;28;20067;-79
2022/09/19 11:58:42;;;;;;;1.70;0.60;;;12.90;93.60;;;;;;5055988;28;20094;-78
2022/09/19 12:01:26;;;;;;;1.27;0.30;;;12.80;93.60;;;;;;5060969;28;20060;-78
2022/09/19 12:04:26;;;;;;;1.15;0.55;;;12.70;93.50;;;;;;5049947;28;20438;-77
2022/09/19 12:07:41;;;;;;;3.15;0.75;;;12.70;93.40;;;;;;5056363;28;20036;-77
2022/09/19 12:10:50;;;;;;;1.58;0.70;;;12.60;92.80;;;;;;5057488;28;20037;-77
2022/09/19 12:13:35;;;;;;;2.85;0.95;;;12.50;93.20;;;;;;5050459;28;20048;-79
2022/09/19 12:16:10;;;;;;;2.22;0.73;;;12.40;93.30;;;;;;5055099;28;20036;-78
2022/09/19 12:19:01;;;;;;;2.75;0.80;;;12.40;93.60;;;;;;5060612;28;20498;-78
2022/09/19 12:21:36;;;;;;;6.18;0.95;;;12.30;93.90;;;;;;5052568;28;20032;-77
2022/09/19 12:27:25;;;;;;;1.90;0.88;;;12.30;94.10;;;;;;5052009;28;20133;-77
2022/09/19 12:30:11;;;;;;;1.83;0.77;;;12.30;93.90;;;;;;5052173;28;20058;-76
2022/09/19 12:32:53;;;;;;;2.15;0.70;;;12.20;94.30;;;;;;5050004;28;20391;-77
2022/09/19 12:36:04;;;;;;;2.78;0.80;;;12.10;94.70;;;;;;5051940;28;20036;-78
2022/09/19 12:38:39;;;;;;;2.17;1.05;;;12.10;94.70;;;;;;5059449;28;20070;-78
2022/09/19 12:41:21;;;;;;;2.20;1.02;;;12.10;95.00;;;;;;5050237;28;20025;-78
2022/09/19 12:44:14;;;;;;;2.63;0.85;;;12.00;95.40;;;;;;5058399;28;20054;-77
2022/09/19 12:47:04;;;;;;;1.90;0.85;;;11.90;95.40;;;;;;5057473;28;20452;-75
2022/09/19 12:49:47;;;;;;;2.47;0.90;;;11.90;95.30;;;;;;5049022;28;20044;-76
2022/09/19 12:52:44;;;;;;;4.55;0.90;;;11.90;95.00;;;;;;5055643;28;20059;-78
2022/09/19 12:55:19;;;;;;;4.40;1.30;;;11.90;94.60;;;;;;5051907;28;20040;-77
2022/09/19 12:58:10;;;;;;;3.75;1.50;;;11.90;94.30;;;;;;5056927;28;20819;-76
2022/09/19 13:00:42;;;;;;;9.43;3.33;;;11.90;94.00;;;;;;5055499;28;20089;-77
2022/09/19 13:03:35;;;;;;;4.80;2.35;;;11.90;93.70;;;;;;5055779;28;20035;-78
2022/09/19 13:06:12;;;;;;;4.13;1.55;;;11.90;93.40;;;;;;5058558;28;20476;-78
2022/09/19 13:09:19;;;;;;;5.80;2.28;;;11.90;93.30;;;;;;5057173;28;20488;-79
2022/09/19 13:12:04;;;;;;;3.28;1.73;;;11.90;93.20;;;;;;5054392;28;20446;-76
2022/09/19 13:15:17;;;;;;;5.35;1.75;;;11.90;93.50;;;;;;5056910;28;20047;-78
2022/09/19 13:23:32;;;;;;;5.32;1.95;;;11.80;93.00;;;;;;5056853;28;20036;-77
2022/09/19 13:26:25;;;;;;;5.10;1.88;;;11.90;93.00;;;;;;5059888;28;20028;-77
2022/09/19 13:28:57;;;;;;;7.68;2.10;;;11.80;93.00;;;;;;5059927;28;20040;-79
2022/09/19 13:31:31;;;;;;;3.55;1.27;;;11.80;93.10;;;;;;5063898;28;20485;-77
2022/09/19 13:33:59;;;;;;;3.75;1.23;;;11.80;93.20;;;;;;5062385;28;20067;-78
2022/09/19 13:36:27;;;;;;;3.55;1.30;;;11.90;93.20;;;;;;5061449;28;20505;-77
2022/09/19 13:38:58;;;;;;;4.47;1.20;;;11.80;93.20;;;;;;5062692;28;20021;-75
2022/09/19 13:41:47;;;;;;;3.90;1.20;;;11.80;93.30;;;;;;5057163;28;20052;-77
2022/09/19 13:44:21;;;;;;;1.67;0.95;;;11.80;93.20;;;;;;5058488;28;20100;-75
2022/09/19 13:47:07;;;;;;;4.03;1.50;;;11.70;93.30;;;;;;5065277;28;20056;-75
2022/09/19 13:49:51;;;;;;;4.30;1.42;;;11.70;93.40;;;;;;5055262;28;20043;-77
2022/09/19 13:52:27;;;;;;;3.10;1.10;;;11.70;93.50;;;;;;5044719;28;20082;-78
2022/09/19 13:55:21;;;;;;;;;;;11.70;93.60;;;;;;5050680;28;20032;-79
2022/09/19 13:57:50;;;;;;;2.05;0.55;;;11.70;93.50;;;;;;5048493;28;19923;-76